Frostrup, Denmark
Current Conditions -  °F | °C
As of 3:20 PM on Thursday 27 Nov 2014 (Local Time) from EKYT Reporting Station
Scattered Clouds Scattered Clouds  
Wind Chill: 40°   Ceiling: Unl
Heat Index: 45°   Visibility: 6mi
Dew Point: 36°   Wind: 9mph
Humidity: 71%   Direction: 120°ESE
Pressure: 30.06"   Gusts: NA
Location:  57.08°N, 8.98°E
Report Text: EKYT 271420Z 12008KT 9999 FEW025 SCT030 07/02 Q1018
Loading
Personal Weather Stations






























Interactive Weather Map New forecast layout! Learn more

10-Day Weather Forecast

Advertisements
Track Severe Weather on mobile